sensor_id;sensor_type;location;lat;lon;timestamp;P1;durP1;ratioP1;P2;durP2;ratioP2
74749;SDS011;63269;53.330;-6.288;2022-11-15T00:00:49;2.83;;;0.70;;
74749;SDS011;63269;53.330;-6.288;2022-11-15T00:03:15;2.63;;;0.55;;
74749;SDS011;63269;53.330;-6.288;2022-11-15T00:05:51;1.80;;;0.88;;
74749;SDS011;63269;53.330;-6.288;2022-11-15T00:08:16;3.40;;;0.80;;
74749;SDS011;63269;53.330;-6.288;2022-11-15T00:10:42;2.97;;;0.90;;
74749;SDS011;63269;53.330;-6.288;2022-11-15T00:13:09;2.20;;;0.50;;
74749;SDS011;63269;53.330;-6.288;2022-11-15T00:15:36;3.08;;;1.15;;
74749;SDS011;63269;53.330;-6.288;2022-11-15T00:18:03;4.57;;;0.98;;
74749;SDS011;63269;53.330;-6.288;2022-11-15T00:20:29;2.92;;;0.80;;
74749;SDS011;63269;53.330;-6.288;2022-11-15T00:22:54;1.75;;;0.60;;
74749;SDS011;63269;53.330;-6.288;2022-11-15T00:25:20;0.88;;;0.40;;
74749;SDS011;63269;53.330;-6.288;2022-11-15T00:27:45;2.70;;;0.73;;
74749;SDS011;63269;53.330;-6.288;2022-11-15T00:30:11;3.70;;;1.13;;
74749;SDS011;63269;53.330;-6.288;2022-11-15T00:32:37;2.53;;;0.77;;
74749;SDS011;63269;53.330;-6.288;2022-11-15T00:35:03;2.70;;;0.93;;
74749;SDS011;63269;53.330;-6.288;2022-11-15T00:37:28;2.35;;;0.70;;
74749;SDS011;63269;53.330;-6.288;2022-11-15T00:39:54;1.73;;;0.30;;
74749;SDS011;63269;53.330;-6.288;2022-11-15T00:42:19;1.48;;;0.40;;
74749;SDS011;63269;53.330;-6.288;2022-11-15T00:44:44;1.65;;;0.38;;
74749;SDS011;63269;53.330;-6.288;2022-11-15T00:47:10;1.17;;;0.40;;
74749;SDS011;63269;53.330;-6.288;2022-11-15T00:49:35;1.85;;;0.55;;
74749;SDS011;63269;53.330;-6.288;2022-11-15T00:52:01;1.52;;;0.57;;
74749;SDS011;63269;53.330;-6.288;2022-11-15T00:54:26;1.95;;;0.60;;
74749;SDS011;63269;53.330;-6.288;2022-11-15T00:56:51;2.03;;;0.40;;
74749;SDS011;63269;53.330;-6.288;2022-11-15T00:59:17;1.25;;;0.30;;
74749;SDS011;63269;53.330;-6.288;2022-11-15T01:01:42;1.55;;;0.50;;
74749;SDS011;63269;53.330;-6.288;2022-11-15T01:04:08;1.38;;;0.40;;
74749;SDS011;63269;53.330;-6.288;2022-11-15T01:06:33;1.13;;;0.43;;
74749;SDS011;63269;53.330;-6.288;2022-11-15T01:08:58;2.13;;;0.60;;
74749;SDS011;63269;53.330;-6.288;2022-11-15T01:11:24;1.52;;;0.40;;
74749;SDS011;63269;53.330;-6.288;2022-11-15T01:13:49;1.55;;;0.60;;
74749;SDS011;63269;53.330;-6.288;2022-11-15T01:16:16;1.15;;;0.30;;
74749;SDS011;63269;53.330;-6.288;2022-11-15T01:18:43;2.30;;;0.60;;
74749;SDS011;63269;53.330;-6.288;2022-11-15T01:21:10;0.80;;;0.40;;
74749;SDS011;63269;53.330;-6.288;2022-11-15T01:23:38;1.77;;;0.50;;
74749;SDS011;63269;53.330;-6.288;2022-11-15T01:26:04;1.05;;;0.20;;
74749;SDS011;63269;53.330;-6.288;2022-11-15T01:28:33;0.98;;;0.30;;
74749;SDS011;63269;53.330;-6.288;2022-11-15T01:31:00;1.40;;;0.40;;
74749;SDS011;63269;53.330;-6.288;2022-11-15T01:33:28;0.60;;;0.20;;
74749;SDS011;63269;53.330;-6.288;2022-11-15T01:35:54;0.80;;;0.32;;
74749;SDS011;63269;53.330;-6.288;2022-11-15T01:38:20;1.35;;;0.38;;
74749;SDS011;63269;53.330;-6.288;2022-11-15T01:40:45;0.95;;;0.30;;
74749;SDS011;63269;53.330;-6.288;2022-11-15T01:45:50;2.42;;;0.50;;
74749;SDS011;63269;53.330;-6.288;2022-11-15T01:48:20;1.38;;;0.32;;
74749;SDS011;63269;53.330;-6.288;2022-11-15T01:50:47;1.05;;;0.30;;
74749;SDS011;63269;53.330;-6.288;2022-11-15T01:53:13;0.77;;;0.40;;
74749;SDS011;63269;53.330;-6.288;2022-11-15T01:55:40;0.55;;;0.22;;
74749;SDS011;63269;53.330;-6.288;2022-11-15T01:58:05;1.17;;;0.38;;
74749;SDS011;63269;53.330;-6.288;2022-11-15T02:00:32;0.80;;;0.28;;
74749;SDS011;63269;53.330;-6.288;2022-11-15T02:02:58;1.55;;;0.17;;
74749;SDS011;63269;53.330;-6.288;2022-11-15T02:05:23;1.35;;;0.40;;
74749;SDS011;63269;53.330;-6.288;2022-11-15T02:07:49;3.33;;;0.35;;
74749;SDS011;63269;53.330;-6.288;2022-11-15T02:10:18;1.23;;;0.30;;
74749;SDS011;63269;53.330;-6.288;2022-11-15T02:12:45;0.88;;;0.30;;
74749;SDS011;63269;53.330;-6.288;2022-11-15T02:15:12;0.98;;;0.20;;
74749;SDS011;63269;53.330;-6.288;2022-11-15T02:20:29;0.70;;;0.32;;
74749;SDS011;63269;53.330;-6.288;2022-11-15T02:25:57;0.57;;;0.20;;
74749;SDS011;63269;53.330;-6.288;2022-11-15T02:28:50;0.80;;;0.20;;
74749;SDS011;63269;53.330;-6.288;2022-11-15T02:34:43;0.85;;;0.20;;
74749;SDS011;63269;53.330;-6.288;2022-11-15T02:37:29;0.50;;;0.20;;
74749;SDS011;63269;53.330;-6.288;2022-11-15T02:40:03;0.82;;;0.30;;
74749;SDS011;63269;53.330;-6.288;2022-11-15T02:42:35;1.55;;;0.40;;
74749;SDS011;63269;53.330;-6.288;2022-11-15T02:45:28;0.85;;;0.20;;
74749;SDS011;63269;53.330;-6.288;2022-11-15T02:47:58;0.98;;;0.30;;
74749;SDS011;63269;53.330;-6.288;2022-11-15T02:50:25;1.15;;;0.40;;
74749;SDS011;63269;53.330;-6.288;2022-11-15T02:52:54;0.88;;;0.40;;
74749;SDS011;63269;53.330;-6.288;2022-11-15T03:04:12;1.63;;;0.30;;
74749;SDS011;63269;53.330;-6.288;2022-11-15T03:06:42;1.33;;;0.43;;
74749;SDS011;63269;53.330;-6.288;2022-11-15T03:12:10;1.90;;;0.40;;
74749;SDS011;63269;53.330;-6.288;2022-11-15T03:15:24;0.93;;;0.40;;
74749;SDS011;63269;53.330;-6.288;2022-11-15T03:17:43;1.90;;;0.40;;
74749;SDS011;63269;53.330;-6.288;2022-11-15T03:20:17;2.17;;;0.50;;
74749;SDS011;63269;53.330;-6.288;2022-11-15T03:22:44;1.48;;;0.50;;
74749;SDS011;63269;53.330;-6.288;2022-11-15T03:25:13;1.73;;;0.40;;
74749;SDS011;63269;53.330;-6.288;2022-11-15T03:27:43;1.70;;;0.45;;
74749;SDS011;63269;53.330;-6.288;2022-11-15T03:30:13;1.92;;;0.60;;
74749;SDS011;63269;53.330;-6.288;2022-11-15T03:32:46;2.70;;;0.50;;
74749;SDS011;63269;53.330;-6.288;2022-11-15T03:35:17;4.20;;;1.10;;
74749;SDS011;63269;53.330;-6.288;2022-11-15T03:40:13;3.30;;;1.45;;
74749;SDS011;63269;53.330;-6.288;2022-11-15T03:42:42;1.92;;;0.57;;
74749;SDS011;63269;53.330;-6.288;2022-11-15T03:45:14;2.83;;;0.60;;
74749;SDS011;63269;53.330;-6.288;2022-11-15T03:47:42;2.13;;;0.60;;
74749;SDS011;63269;53.330;-6.288;2022-11-15T03:50:12;1.75;;;0.50;;
74749;SDS011;63269;53.330;-6.288;2022-11-15T03:52:41;2.83;;;0.90;;
74749;SDS011;63269;53.330;-6.288;2022-11-15T03:55:08;3.08;;;0.75;;
74749;SDS011;63269;53.330;-6.288;2022-11-15T03:57:36;2.28;;;0.65;;
74749;SDS011;63269;53.330;-6.288;2022-11-15T04:00:02;3.17;;;0.60;;
74749;SDS011;63269;53.330;-6.288;2022-11-15T04:02:29;1.77;;;0.60;;
74749;SDS011;63269;53.330;-6.288;2022-11-15T04:04:54;2.92;;;0.70;;
74749;SDS011;63269;53.330;-6.288;2022-11-15T04:07:19;3.25;;;0.73;;
74749;SDS011;63269;53.330;-6.288;2022-11-15T04:09:45;2.50;;;0.90;;
74749;SDS011;63269;53.330;-6.288;2022-11-15T04:12:30;4.63;;;1.45;;
74749;SDS011;63269;53.330;-6.288;2022-11-15T04:15:01;3.33;;;0.90;;
74749;SDS011;63269;53.330;-6.288;2022-11-15T04:17:32;2.97;;;0.70;;
74749;SDS011;63269;53.330;-6.288;2022-11-15T04:19:58;5.97;;;1.23;;
74749;SDS011;63269;53.330;-6.288;2022-11-15T04:22:42;3.55;;;0.93;;
74749;SDS011;63269;53.330;-6.288;2022-11-15T04:25:26;5.13;;;0.95;;
74749;SDS011;63269;53.330;-6.288;2022-11-15T04:27:52;3.85;;;1.30;;
74749;SDS011;63269;53.330;-6.288;2022-11-15T04:30:17;3.63;;;0.80;;
74749;SDS011;63269;53.330;-6.288;2022-11-15T04:32:42;4.20;;;1.00;;
74749;SDS011;63269;53.330;-6.288;2022-11-15T04:35:08;2.47;;;0.90;;
74749;SDS011;63269;53.330;-6.288;2022-11-15T04:37:33;3.47;;;1.15;;
74749;SDS011;63269;53.330;-6.288;2022-11-15T04:39:59;3.50;;;0.88;;
74749;SDS011;63269;53.330;-6.288;2022-11-15T04:42:24;2.33;;;0.80;;
74749;SDS011;63269;53.330;-6.288;2022-11-15T04:44:49;5.05;;;1.00;;
74749;SDS011;63269;53.330;-6.288;2022-11-15T04:47:15;4.35;;;1.05;;
74749;SDS011;63269;53.330;-6.288;2022-11-15T04:49:40;5.47;;;1.20;;
74749;SDS011;63269;53.330;-6.288;2022-11-15T04:52:06;5.05;;;1.33;;
74749;SDS011;63269;53.330;-6.288;2022-11-15T04:54:31;4.60;;;1.08;;
74749;SDS011;63269;53.330;-6.288;2022-11-15T04:56:56;6.10;;;1.20;;
74749;SDS011;63269;53.330;-6.288;2022-11-15T04:59:22;4.63;;;1.08;;
74749;SDS011;63269;53.330;-6.288;2022-11-15T05:01:47;3.22;;;0.90;;
74749;SDS011;63269;53.330;-6.288;2022-11-15T05:04:13;4.78;;;1.30;;
74749;SDS011;63269;53.330;-6.288;2022-11-15T05:06:45;6.40;;;1.30;;
74749;SDS011;63269;53.330;-6.288;2022-11-15T05:09:11;4.68;;;1.30;;
74749;SDS011;63269;53.330;-6.288;2022-11-15T05:11:38;5.13;;;0.93;;
74749;SDS011;63269;53.330;-6.288;2022-11-15T05:14:04;4.07;;;1.23;;
74749;SDS011;63269;53.330;-6.288;2022-11-15T05:16:29;4.18;;;1.23;;
74749;SDS011;63269;53.330;-6.288;2022-11-15T05:18:55;6.63;;;1.13;;
74749;SDS011;63269;53.330;-6.288;2022-11-15T05:21:21;3.47;;;0.85;;
74749;SDS011;63269;53.330;-6.288;2022-11-15T05:23:46;3.65;;;1.17;;
74749;SDS011;63269;53.330;-6.288;2022-11-15T05:26:12;5.97;;;1.23;;
74749;SDS011;63269;53.330;-6.288;2022-11-15T05:28:38;4.30;;;1.27;;
74749;SDS011;63269;53.330;-6.288;2022-11-15T05:31:05;4.65;;;1.33;;
74749;SDS011;63269;53.330;-6.288;2022-11-15T05:33:31;4.93;;;1.27;;
74749;SDS011;63269;53.330;-6.288;2022-11-15T05:36:42;3.83;;;1.15;;
74749;SDS011;63269;53.330;-6.288;2022-11-15T05:38:58;5.25;;;1.20;;
74749;SDS011;63269;53.330;-6.288;2022-11-15T05:41:29;6.55;;;1.30;;
74749;SDS011;63269;53.330;-6.288;2022-11-15T05:43:57;4.72;;;1.60;;
74749;SDS011;63269;53.330;-6.288;2022-11-15T05:46:23;4.95;;;1.77;;
74749;SDS011;63269;53.330;-6.288;2022-11-15T05:48:49;3.30;;;1.02;;
74749;SDS011;63269;53.330;-6.288;2022-11-15T05:51:17;3.45;;;1.10;;
74749;SDS011;63269;53.330;-6.288;2022-11-15T05:53:45;4.72;;;1.30;;
74749;SDS011;63269;53.330;-6.288;2022-11-15T05:56:11;3.65;;;1.10;;
74749;SDS011;63269;53.330;-6.288;2022-11-15T05:58:37;4.30;;;1.25;;
74749;SDS011;63269;53.330;-6.288;2022-11-15T06:01:03;4.75;;;1.20;;
74749;SDS011;63269;53.330;-6.288;2022-11-15T06:03:29;4.13;;;1.30;;
74749;SDS011;63269;53.330;-6.288;2022-11-15T06:05:55;3.13;;;1.00;;
74749;SDS011;63269;53.330;-6.288;2022-11-15T06:08:21;6.07;;;1.23;;
74749;SDS011;63269;53.330;-6.288;2022-11-15T06:10:46;3.80;;;1.92;;
74749;SDS011;63269;53.330;-6.288;2022-11-15T06:13:12;4.20;;;1.38;;
74749;SDS011;63269;53.330;-6.288;2022-11-15T06:15:37;4.28;;;1.15;;
74749;SDS011;63269;53.330;-6.288;2022-11-15T06:18:03;2.63;;;1.00;;
74749;SDS011;63269;53.330;-6.288;2022-11-15T06:20:29;4.80;;;1.35;;
74749;SDS011;63269;53.330;-6.288;2022-11-15T06:22:58;4.32;;;1.40;;
74749;SDS011;63269;53.330;-6.288;2022-11-15T06:25:28;4.95;;;1.58;;
74749;SDS011;63269;53.330;-6.288;2022-11-15T06:27:54;5.20;;;1.40;;
74749;SDS011;63269;53.330;-6.288;2022-11-15T06:30:21;5.22;;;1.67;;
74749;SDS011;63269;53.330;-6.288;2022-11-15T06:32:47;4.65;;;1.50;;
74749;SDS011;63269;53.330;-6.288;2022-11-15T06:35:13;3.90;;;1.30;;
74749;SDS011;63269;53.330;-6.288;2022-11-15T06:37:38;4.47;;;1.80;;
74749;SDS011;63269;53.330;-6.288;2022-11-15T06:40:04;5.45;;;1.27;;
74749;SDS011;63269;53.330;-6.288;2022-11-15T06:42:30;4.03;;;1.58;;
74749;SDS011;63269;53.330;-6.288;2022-11-15T06:44:56;3.30;;;1.10;;
74749;SDS011;63269;53.330;-6.288;2022-11-15T06:47:21;4.43;;;1.35;;
74749;SDS011;63269;53.330;-6.288;2022-11-15T06:49:47;5.88;;;1.42;;
74749;SDS011;63269;53.330;-6.288;2022-11-15T06:52:12;6.85;;;1.33;;
74749;SDS011;63269;53.330;-6.288;2022-11-15T06:54:37;2.92;;;1.40;;
74749;SDS011;63269;53.330;-6.288;2022-11-15T06:57:03;5.78;;;1.63;;
74749;SDS011;63269;53.330;-6.288;2022-11-15T06:59:29;5.70;;;1.20;;
74749;SDS011;63269;53.330;-6.288;2022-11-15T07:01:55;5.43;;;1.50;;
74749;SDS011;63269;53.330;-6.288;2022-11-15T07:04:20;4.55;;;1.20;;
74749;SDS011;63269;53.330;-6.288;2022-11-15T07:06:46;8.15;;;1.90;;
74749;SDS011;63269;53.330;-6.288;2022-11-15T07:09:13;7.00;;;1.58;;
74749;SDS011;63269;53.330;-6.288;2022-11-15T07:11:38;4.45;;;1.30;;
74749;SDS011;63269;53.330;-6.288;2022-11-15T07:14:03;3.13;;;1.20;;
74749;SDS011;63269;53.330;-6.288;2022-11-15T07:16:29;6.47;;;1.77;;
74749;SDS011;63269;53.330;-6.288;2022-11-15T07:18:54;5.90;;;1.40;;
74749;SDS011;63269;53.330;-6.288;2022-11-15T07:21:20;4.07;;;1.30;;
74749;SDS011;63269;53.330;-6.288;2022-11-15T07:23:45;5.40;;;1.50;;
74749;SDS011;63269;53.330;-6.288;2022-11-15T07:26:11;3.75;;;1.20;;
74749;SDS011;63269;53.330;-6.288;2022-11-15T07:28:36;5.38;;;1.20;;
74749;SDS011;63269;53.330;-6.288;2022-11-15T07:31:02;4.22;;;1.52;;
74749;SDS011;63269;53.330;-6.288;2022-11-15T07:33:29;6.47;;;1.35;;
74749;SDS011;63269;53.330;-6.288;2022-11-15T07:35:57;5.93;;;1.15;;
74749;SDS011;63269;53.330;-6.288;2022-11-15T07:38:25;5.25;;;1.42;;
74749;SDS011;63269;53.330;-6.288;2022-11-15T07:40:55;4.03;;;1.80;;
74749;SDS011;63269;53.330;-6.288;2022-11-15T07:43:22;5.97;;;1.30;;
74749;SDS011;63269;53.330;-6.288;2022-11-15T07:45:48;4.75;;;1.27;;
74749;SDS011;63269;53.330;-6.288;2022-11-15T07:48:13;4.90;;;1.33;;
74749;SDS011;63269;53.330;-6.288;2022-11-15T07:50:42;8.38;;;1.95;;
74749;SDS011;63269;53.330;-6.288;2022-11-15T07:53:08;3.90;;;1.57;;
74749;SDS011;63269;53.330;-6.288;2022-11-15T07:55:34;4.80;;;1.40;;
74749;SDS011;63269;53.330;-6.288;2022-11-15T07:58:04;4.25;;;1.30;;
74749;SDS011;63269;53.330;-6.288;2022-11-15T08:00:30;3.85;;;1.55;;
74749;SDS011;63269;53.330;-6.288;2022-11-15T08:03:06;5.03;;;1.63;;
74749;SDS011;63269;53.330;-6.288;2022-11-15T08:05:36;5.22;;;1.67;;
74749;SDS011;63269;53.330;-6.288;2022-11-15T08:08:03;6.40;;;1.90;;
74749;SDS011;63269;53.330;-6.288;2022-11-15T08:10:28;3.72;;;1.40;;
74749;SDS011;63269;53.330;-6.288;2022-11-15T08:13:01;5.20;;;2.00;;
74749;SDS011;63269;53.330;-6.288;2022-11-15T08:15:28;7.35;;;1.88;;
74749;SDS011;63269;53.330;-6.288;2022-11-15T08:17:59;3.38;;;1.38;;
74749;SDS011;63269;53.330;-6.288;2022-11-15T08:20:26;5.72;;;1.58;;
74749;SDS011;63269;53.330;-6.288;2022-11-15T08:22:55;5.55;;;1.88;;
74749;SDS011;63269;53.330;-6.288;2022-11-15T08:25:21;7.35;;;1.95;;
74749;SDS011;63269;53.330;-6.288;2022-11-15T08:27:47;7.20;;;1.98;;
74749;SDS011;63269;53.330;-6.288;2022-11-15T08:30:16;7.13;;;1.33;;
74749;SDS011;63269;53.330;-6.288;2022-11-15T08:32:42;5.25;;;1.38;;
74749;SDS011;63269;53.330;-6.288;2022-11-15T08:35:07;6.03;;;1.98;;
74749;SDS011;63269;53.330;-6.288;2022-11-15T08:37:33;6.57;;;1.70;;
74749;SDS011;63269;53.330;-6.288;2022-11-15T08:39:58;7.03;;;2.00;;
74749;SDS011;63269;53.330;-6.288;2022-11-15T08:42:24;5.97;;;1.40;;
74749;SDS011;63269;53.330;-6.288;2022-11-15T08:44:49;7.22;;;1.52;;
74749;SDS011;63269;53.330;-6.288;2022-11-15T08:47:15;5.10;;;1.48;;
74749;SDS011;63269;53.330;-6.288;2022-11-15T08:49:40;3.67;;;1.33;;
74749;SDS011;63269;53.330;-6.288;2022-11-15T08:52:05;7.03;;;2.08;;
74749;SDS011;63269;53.330;-6.288;2022-11-15T08:54:31;7.40;;;1.90;;
74749;SDS011;63269;53.330;-6.288;2022-11-15T08:56:56;4.72;;;1.80;;
74749;SDS011;63269;53.330;-6.288;2022-11-15T08:59:22;5.40;;;1.70;;
74749;SDS011;63269;53.330;-6.288;2022-11-15T09:01:47;7.20;;;1.95;;
74749;SDS011;63269;53.330;-6.288;2022-11-15T09:04:13;6.25;;;2.15;;
74749;SDS011;63269;53.330;-6.288;2022-11-15T09:06:38;5.85;;;1.65;;
74749;SDS011;63269;53.330;-6.288;2022-11-15T09:09:03;5.07;;;1.55;;
74749;SDS011;63269;53.330;-6.288;2022-11-15T09:11:29;6.40;;;1.83;;
74749;SDS011;63269;53.330;-6.288;2022-11-15T09:13:54;7.85;;;2.08;;
74749;SDS011;63269;53.330;-6.288;2022-11-15T09:16:20;5.38;;;1.63;;
74749;SDS011;63269;53.330;-6.288;2022-11-15T09:18:46;7.20;;;1.73;;
74749;SDS011;63269;53.330;-6.288;2022-11-15T09:21:11;7.30;;;1.80;;
74749;SDS011;63269;53.330;-6.288;2022-11-15T09:23:36;6.22;;;2.08;;
74749;SDS011;63269;53.330;-6.288;2022-11-15T09:26:03;5.60;;;1.70;;
74749;SDS011;63269;53.330;-6.288;2022-11-15T09:28:29;4.60;;;1.70;;
74749;SDS011;63269;53.330;-6.288;2022-11-15T09:31:00;5.78;;;1.77;;
74749;SDS011;63269;53.330;-6.288;2022-11-15T09:33:27;8.80;;;2.20;;
74749;SDS011;63269;53.330;-6.288;2022-11-15T09:35:52;8.05;;;3.08;;
74749;SDS011;63269;53.330;-6.288;2022-11-15T09:38:19;6.05;;;2.00;;
74749;SDS011;63269;53.330;-6.288;2022-11-15T09:40:44;7.30;;;1.80;;
74749;SDS011;63269;53.330;-6.288;2022-11-15T09:43:28;10.05;;;1.70;;
74749;SDS011;63269;53.330;-6.288;2022-11-15T09:48:51;9.85;;;2.45;;
74749;SDS011;63269;53.330;-6.288;2022-11-15T09:51:29;11.25;;;2.15;;
74749;SDS011;63269;53.330;-6.288;2022-11-15T09:56:44;7.00;;;2.42;;
74749;SDS011;63269;53.330;-6.288;2022-11-15T10:04:46;14.32;;;2.03;;
74749;SDS011;63269;53.330;-6.288;2022-11-15T10:07:19;8.80;;;2.83;;
74749;SDS011;63269;53.330;-6.288;2022-11-15T10:09:51;12.18;;;2.00;;
74749;SDS011;63269;53.330;-6.288;2022-11-15T10:12:22;11.30;;;2.28;;
74749;SDS011;63269;53.330;-6.288;2022-11-15T10:14:49;6.40;;;1.80;;
74749;SDS011;63269;53.330;-6.288;2022-11-15T10:20:25;7.13;;;1.65;;
74749;SDS011;63269;53.330;-6.288;2022-11-15T10:22:53;7.65;;;1.90;;
74749;SDS011;63269;53.330;-6.288;2022-11-15T10:25:23;8.33;;;2.00;;
74749;SDS011;63269;53.330;-6.288;2022-11-15T10:27:54;11.13;;;2.58;;
74749;SDS011;63269;53.330;-6.288;2022-11-15T10:30:20;9.15;;;1.85;;
74749;SDS011;63269;53.330;-6.288;2022-11-15T10:32:46;6.47;;;1.95;;
74749;SDS011;63269;53.330;-6.288;2022-11-15T10:35:21;9.43;;;2.30;;
74749;SDS011;63269;53.330;-6.288;2022-11-15T10:37:52;6.90;;;1.80;;
74749;SDS011;63269;53.330;-6.288;2022-11-15T10:40:29;6.50;;;2.35;;
74749;SDS011;63269;53.330;-6.288;2022-11-15T10:45:51;9.30;;;1.98;;
74749;SDS011;63269;53.330;-6.288;2022-11-15T10:50:43;7.60;;;2.28;;
74749;SDS011;63269;53.330;-6.288;2022-11-15T10:56:02;8.23;;;2.05;;
74749;SDS011;63269;53.330;-6.288;2022-11-15T11:00:55;6.13;;;2.08;;
74749;SDS011;63269;53.330;-6.288;2022-11-15T11:03:39;9.32;;;1.80;;
74749;SDS011;63269;53.330;-6.288;2022-11-15T11:06:10;7.32;;;1.63;;
74749;SDS011;63269;53.330;-6.288;2022-11-15T11:08:58;6.30;;;2.00;;
74749;SDS011;63269;53.330;-6.288;2022-11-15T11:11:25;7.55;;;1.58;;
74749;SDS011;63269;53.330;-6.288;2022-11-15T11:14:13;8.88;;;1.88;;
74749;SDS011;63269;53.330;-6.288;2022-11-15T11:22:38;7.93;;;2.13;;
74749;SDS011;63269;53.330;-6.288;2022-11-15T11:27:40;9.45;;;2.17;;
74749;SDS011;63269;53.330;-6.288;2022-11-15T11:38:49;7.43;;;1.80;;
74749;SDS011;63269;53.330;-6.288;2022-11-15T11:41:35;7.45;;;1.90;;
74749;SDS011;63269;53.330;-6.288;2022-11-15T11:45:19;8.82;;;2.00;;
74749;SDS011;63269;53.330;-6.288;2022-11-15T11:48:03;8.45;;;2.35;;
74749;SDS011;63269;53.330;-6.288;2022-11-15T11:50:11;9.52;;;2.40;;
74749;SDS011;63269;53.330;-6.288;2022-11-15T11:52:56;7.63;;;1.63;;
74749;SDS011;63269;53.330;-6.288;2022-11-15T11:55:37;8.48;;;2.08;;
74749;SDS011;63269;53.330;-6.288;2022-11-15T12:00:52;6.45;;;1.83;;
74749;SDS011;63269;53.330;-6.288;2022-11-15T12:06:15;11.13;;;2.10;;
74749;SDS011;63269;53.330;-6.288;2022-11-15T12:09:00;7.75;;;1.65;;
74749;SDS011;63269;53.330;-6.288;2022-11-15T12:11:55;11.30;;;2.25;;
74749;SDS011;63269;53.330;-6.288;2022-11-15T12:14:36;6.95;;;1.48;;
74749;SDS011;63269;53.330;-6.288;2022-11-15T12:17:04;4.85;;;1.25;;
74749;SDS011;63269;53.330;-6.288;2022-11-15T12:19:29;6.18;;;1.63;;
74749;SDS011;63269;53.330;-6.288;2022-11-15T12:21:58;6.18;;;1.55;;
74749;SDS011;63269;53.330;-6.288;2022-11-15T12:27:39;5.63;;;1.42;;
74749;SDS011;63269;53.330;-6.288;2022-11-15T12:30:11;7.05;;;2.45;;
74749;SDS011;63269;53.330;-6.288;2022-11-15T12:35:06;8.05;;;1.50;;
74749;SDS011;63269;53.330;-6.288;2022-11-15T12:37:48;6.85;;;2.05;;
74749;SDS011;63269;53.330;-6.288;2022-11-15T12:40:21;7.72;;;1.65;;
74749;SDS011;63269;53.330;-6.288;2022-11-15T12:43:05;5.35;;;1.65;;
74749;SDS011;63269;53.330;-6.288;2022-11-15T12:45:34;4.85;;;1.30;;
74749;SDS011;63269;53.330;-6.288;2022-11-15T12:51:02;4.93;;;1.50;;
74749;SDS011;63269;53.330;-6.288;2022-11-15T12:53:32;4.82;;;1.85;;
74749;SDS011;63269;53.330;-6.288;2022-11-15T12:58:56;6.00;;;1.58;;
74749;SDS011;63269;53.330;-6.288;2022-11-15T13:11:55;8.98;;;1.77;;
74749;SDS011;63269;53.330;-6.288;2022-11-15T13:19:47;3.15;;;1.05;;
74749;SDS011;63269;53.330;-6.288;2022-11-15T13:28:36;3.50;;;1.08;;
74749;SDS011;63269;53.330;-6.288;2022-11-15T13:34:17;3.85;;;1.52;;
74749;SDS011;63269;53.330;-6.288;2022-11-15T13:36:49;5.68;;;1.33;;
74749;SDS011;63269;53.330;-6.288;2022-11-15T13:41:57;5.75;;;1.08;;
74749;SDS011;63269;53.330;-6.288;2022-11-15T13:44:27;5.65;;;1.70;;
74749;SDS011;63269;53.330;-6.288;2022-11-15T13:47:03;3.67;;;1.30;;
74749;SDS011;63269;53.330;-6.288;2022-11-15T13:49:31;6.60;;;1.40;;
74749;SDS011;63269;53.330;-6.288;2022-11-15T13:51:58;5.68;;;1.13;;
74749;SDS011;63269;53.330;-6.288;2022-11-15T13:59:51;5.28;;;1.02;;
74749;SDS011;63269;53.330;-6.288;2022-11-15T14:02:18;5.30;;;1.65;;
74749;SDS011;63269;53.330;-6.288;2022-11-15T14:04:50;3.80;;;0.80;;
74749;SDS011;63269;53.330;-6.288;2022-11-15T14:07:21;3.63;;;0.82;;
74749;SDS011;63269;53.330;-6.288;2022-11-15T14:09:49;4.07;;;1.40;;
74749;SDS011;63269;53.330;-6.288;2022-11-15T14:14:55;3.28;;;1.13;;
74749;SDS011;63269;53.330;-6.288;2022-11-15T14:17:42;4.22;;;1.20;;
74749;SDS011;63269;53.330;-6.288;2022-11-15T14:23:00;2.75;;;0.98;;
74749;SDS011;63269;53.330;-6.288;2022-11-15T14:25:29;2.67;;;1.00;;
74749;SDS011;63269;53.330;-6.288;2022-11-15T14:30:44;3.78;;;1.45;;
74749;SDS011;63269;53.330;-6.288;2022-11-15T14:35:47;3.75;;;1.10;;
74749;SDS011;63269;53.330;-6.288;2022-11-15T14:38:13;2.95;;;0.93;;
74749;SDS011;63269;53.330;-6.288;2022-11-15T14:40:39;6.63;;;1.50;;
74749;SDS011;63269;53.330;-6.288;2022-11-15T14:43:07;3.65;;;1.33;;
74749;SDS011;63269;53.330;-6.288;2022-11-15T14:45:34;2.55;;;0.80;;
74749;SDS011;63269;53.330;-6.288;2022-11-15T14:48:00;3.70;;;1.50;;
74749;SDS011;63269;53.330;-6.288;2022-11-15T14:50:25;5.35;;;1.50;;
74749;SDS011;63269;53.330;-6.288;2022-11-15T14:52:52;3.53;;;1.00;;
74749;SDS011;63269;53.330;-6.288;2022-11-15T14:55:22;3.65;;;1.00;;
74749;SDS011;63269;53.330;-6.288;2022-11-15T14:57:50;4.25;;;1.00;;
74749;SDS011;63269;53.330;-6.288;2022-11-15T15:00:17;4.60;;;1.15;;
74749;SDS011;63269;53.330;-6.288;2022-11-15T15:02:44;3.08;;;1.15;;
74749;SDS011;63269;53.330;-6.288;2022-11-15T15:05:29;3.60;;;0.98;;
74749;SDS011;63269;53.330;-6.288;2022-11-15T15:07:57;3.08;;;1.08;;
74749;SDS011;63269;53.330;-6.288;2022-11-15T15:10:30;2.30;;;0.73;;
74749;SDS011;63269;53.330;-6.288;2022-11-15T15:12:57;3.35;;;1.13;;
74749;SDS011;63269;53.330;-6.288;2022-11-15T15:15:27;4.45;;;1.08;;
74749;SDS011;63269;53.330;-6.288;2022-11-15T15:17:57;3.15;;;0.95;;
74749;SDS011;63269;53.330;-6.288;2022-11-15T15:20:22;4.97;;;0.90;;
74749;SDS011;63269;53.330;-6.288;2022-11-15T15:22:48;4.43;;;1.40;;
74749;SDS011;63269;53.330;-6.288;2022-11-15T15:25:23;2.83;;;0.98;;
74749;SDS011;63269;53.330;-6.288;2022-11-15T15:27:54;4.55;;;0.90;;
74749;SDS011;63269;53.330;-6.288;2022-11-15T15:30:20;3.38;;;0.85;;
74749;SDS011;63269;53.330;-6.288;2022-11-15T15:32:47;4.03;;;1.33;;
74749;SDS011;63269;53.330;-6.288;2022-11-15T15:35:13;4.22;;;1.27;;
74749;SDS011;63269;53.330;-6.288;2022-11-15T15:37:39;3.35;;;1.10;;
74749;SDS011;63269;53.330;-6.288;2022-11-15T15:40:24;3.55;;;1.05;;
74749;SDS011;63269;53.330;-6.288;2022-11-15T15:42:50;4.85;;;1.10;;
74749;SDS011;63269;53.330;-6.288;2022-11-15T15:45:16;4.95;;;1.50;;
74749;SDS011;63269;53.330;-6.288;2022-11-15T15:47:43;3.60;;;0.95;;
74749;SDS011;63269;53.330;-6.288;2022-11-15T15:50:25;6.00;;;1.30;;
74749;SDS011;63269;53.330;-6.288;2022-11-15T15:52:57;4.65;;;1.65;;
74749;SDS011;63269;53.330;-6.288;2022-11-15T15:55:24;3.30;;;1.00;;
74749;SDS011;63269;53.330;-6.288;2022-11-15T15:57:50;4.78;;;1.08;;
74749;SDS011;63269;53.330;-6.288;2022-11-15T16:00:16;3.03;;;1.02;;
74749;SDS011;63269;53.330;-6.288;2022-11-15T16:02:43;3.90;;;1.10;;
74749;SDS011;63269;53.330;-6.288;2022-11-15T16:05:08;5.03;;;1.13;;
74749;SDS011;63269;53.330;-6.288;2022-11-15T16:07:35;4.97;;;1.73;;
74749;SDS011;63269;53.330;-6.288;2022-11-15T16:10:01;4.85;;;1.35;;
74749;SDS011;63269;53.330;-6.288;2022-11-15T16:12:28;4.82;;;1.30;;
74749;SDS011;63269;53.330;-6.288;2022-11-15T16:14:58;4.47;;;1.30;;
74749;SDS011;63269;53.330;-6.288;2022-11-15T16:17:25;5.05;;;1.45;;
74749;SDS011;63269;53.330;-6.288;2022-11-15T16:19:52;3.40;;;1.42;;
74749;SDS011;63269;53.330;-6.288;2022-11-15T16:22:17;2.90;;;1.00;;
74749;SDS011;63269;53.330;-6.288;2022-11-15T16:24:43;4.93;;;1.50;;
74749;SDS011;63269;53.330;-6.288;2022-11-15T16:27:18;4.60;;;1.10;;
74749;SDS011;63269;53.330;-6.288;2022-11-15T16:29:45;5.03;;;2.03;;
74749;SDS011;63269;53.330;-6.288;2022-11-15T16:32:11;7.78;;;3.50;;
74749;SDS011;63269;53.330;-6.288;2022-11-15T16:34:37;7.45;;;3.20;;
74749;SDS011;63269;53.330;-6.288;2022-11-15T16:37:03;7.78;;;3.40;;
74749;SDS011;63269;53.330;-6.288;2022-11-15T16:39:29;9.75;;;3.47;;
74749;SDS011;63269;53.330;-6.288;2022-11-15T16:41:56;7.10;;;3.28;;
74749;SDS011;63269;53.330;-6.288;2022-11-15T16:44:21;8.48;;;3.60;;
74749;SDS011;63269;53.330;-6.288;2022-11-15T16:46:48;9.43;;;3.63;;
74749;SDS011;63269;53.330;-6.288;2022-11-15T16:49:16;7.45;;;3.03;;
74749;SDS011;63269;53.330;-6.288;2022-11-15T16:51:44;7.72;;;3.30;;